sensor_id;sensor_type;location;lat;lon;timestamp;P1;durP1;ratioP1;P2;durP2;ratioP2
47353;SDS011;50657;48.830;2.282;2022-12-22T00:02:25;39.08;;;21.88;;
47353;SDS011;50657;48.830;2.282;2022-12-22T00:05:11;32.95;;;18.45;;
47353;SDS011;50657;48.830;2.282;2022-12-22T00:07:57;28.35;;;16.05;;
47353;SDS011;50657;48.830;2.282;2022-12-22T00:10:41;27.73;;;15.38;;
47353;SDS011;50657;48.830;2.282;2022-12-22T00:13:26;28.02;;;15.27;;
47353;SDS011;50657;48.830;2.282;2022-12-22T00:16:11;31.80;;;15.25;;
47353;SDS011;50657;48.830;2.282;2022-12-22T00:18:57;26.48;;;12.48;;
47353;SDS011;50657;48.830;2.282;2022-12-22T00:21:41;23.40;;;12.75;;
47353;SDS011;50657;48.830;2.282;2022-12-22T00:24:26;21.35;;;11.73;;
47353;SDS011;50657;48.830;2.282;2022-12-22T00:27:12;23.48;;;11.65;;
47353;SDS011;50657;48.830;2.282;2022-12-22T00:29:58;21.23;;;9.80;;
47353;SDS011;50657;48.830;2.282;2022-12-22T00:32:43;19.25;;;10.15;;
47353;SDS011;50657;48.830;2.282;2022-12-22T00:35:30;16.23;;;8.00;;
47353;SDS011;50657;48.830;2.282;2022-12-22T00:38:15;17.80;;;8.85;;
47353;SDS011;50657;48.830;2.282;2022-12-22T00:41:02;13.68;;;7.47;;
47353;SDS011;50657;48.830;2.282;2022-12-22T00:43:47;12.77;;;7.10;;
47353;SDS011;50657;48.830;2.282;2022-12-22T00:46:32;9.75;;;5.70;;
47353;SDS011;50657;48.830;2.282;2022-12-22T00:52:04;10.40;;;5.30;;
47353;SDS011;50657;48.830;2.282;2022-12-22T00:54:49;10.73;;;5.13;;
47353;SDS011;50657;48.830;2.282;2022-12-22T00:57:36;10.88;;;5.43;;
47353;SDS011;50657;48.830;2.282;2022-12-22T01:00:21;9.57;;;4.20;;
47353;SDS011;50657;48.830;2.282;2022-12-22T01:03:06;9.52;;;4.25;;
47353;SDS011;50657;48.830;2.282;2022-12-22T01:08:38;8.02;;;3.38;;
47353;SDS011;50657;48.830;2.282;2022-12-22T01:11:23;10.80;;;4.13;;
47353;SDS011;50657;48.830;2.282;2022-12-22T01:14:10;5.40;;;2.30;;
47353;SDS011;50657;48.830;2.282;2022-12-22T01:16:55;5.40;;;2.67;;
47353;SDS011;50657;48.830;2.282;2022-12-22T01:19:40;6.82;;;2.60;;
47353;SDS011;50657;48.830;2.282;2022-12-22T01:22:25;6.28;;;2.53;;
47353;SDS011;50657;48.830;2.282;2022-12-22T01:27:58;2.58;;;1.25;;
47353;SDS011;50657;48.830;2.282;2022-12-22T01:30:43;5.85;;;2.03;;
47353;SDS011;50657;48.830;2.282;2022-12-22T01:33:28;2.92;;;0.98;;
47353;SDS011;50657;48.830;2.282;2022-12-22T01:36:12;3.90;;;1.20;;
47353;SDS011;50657;48.830;2.282;2022-12-22T01:38:57;3.13;;;1.15;;
47353;SDS011;50657;48.830;2.282;2022-12-22T01:41:44;4.25;;;1.35;;
47353;SDS011;50657;48.830;2.282;2022-12-22T01:44:31;4.63;;;0.90;;
47353;SDS011;50657;48.830;2.282;2022-12-22T01:47:29;4.63;;;1.17;;
47353;SDS011;50657;48.830;2.282;2022-12-22T01:50:16;3.47;;;1.42;;
47353;SDS011;50657;48.830;2.282;2022-12-22T01:53:06;5.18;;;1.30;;
47353;SDS011;50657;48.830;2.282;2022-12-22T01:55:53;4.60;;;0.82;;
47353;SDS011;50657;48.830;2.282;2022-12-22T01:58:41;3.13;;;1.17;;
47353;SDS011;50657;48.830;2.282;2022-12-22T02:01:29;3.05;;;0.28;;
47353;SDS011;50657;48.830;2.282;2022-12-22T02:04:15;5.55;;;1.02;;
47353;SDS011;50657;48.830;2.282;2022-12-22T02:07:03;2.13;;;1.10;;
47353;SDS011;50657;48.830;2.282;2022-12-22T02:09:57;3.40;;;0.52;;
47353;SDS011;50657;48.830;2.282;2022-12-22T02:12:55;4.70;;;0.77;;
47353;SDS011;50657;48.830;2.282;2022-12-22T02:15:47;2.53;;;0.40;;
47353;SDS011;50657;48.830;2.282;2022-12-22T02:18:36;4.43;;;0.38;;
47353;SDS011;50657;48.830;2.282;2022-12-22T02:21:25;3.45;;;0.20;;
47353;SDS011;50657;48.830;2.282;2022-12-22T02:24:18;2.88;;;0.90;;
47353;SDS011;50657;48.830;2.282;2022-12-22T02:27:15;5.82;;;0.90;;
47353;SDS011;50657;48.830;2.282;2022-12-22T02:30:02;1.35;;;0.75;;
47353;SDS011;50657;48.830;2.282;2022-12-22T02:32:49;3.45;;;0.32;;
47353;SDS011;50657;48.830;2.282;2022-12-22T02:35:35;4.93;;;0.52;;
47353;SDS011;50657;48.830;2.282;2022-12-22T02:38:31;3.13;;;0.60;;
47353;SDS011;50657;48.830;2.282;2022-12-22T02:41:27;1.52;;;0.22;;
47353;SDS011;50657;48.830;2.282;2022-12-22T02:44:23;3.60;;;0.93;;
47353;SDS011;50657;48.830;2.282;2022-12-22T02:47:17;4.47;;;1.00;;
47353;SDS011;50657;48.830;2.282;2022-12-22T02:50:08;2.65;;;0.30;;
47353;SDS011;50657;48.830;2.282;2022-12-22T02:52:59;3.53;;;0.38;;
47353;SDS011;50657;48.830;2.282;2022-12-22T02:55:45;4.00;;;0.32;;
47353;SDS011;50657;48.830;2.282;2022-12-22T02:58:29;4.28;;;0.35;;
47353;SDS011;50657;48.830;2.282;2022-12-22T03:04:02;9.35;;;1.10;;
47353;SDS011;50657;48.830;2.282;2022-12-22T03:06:47;2.70;;;0.45;;
47353;SDS011;50657;48.830;2.282;2022-12-22T03:09:31;4.90;;;0.20;;
47353;SDS011;50657;48.830;2.282;2022-12-22T03:12:16;6.15;;;0.40;;
47353;SDS011;50657;48.830;2.282;2022-12-22T03:15:01;3.42;;;0.55;;
47353;SDS011;50657;48.830;2.282;2022-12-22T03:17:47;5.32;;;0.20;;
47353;SDS011;50657;48.830;2.282;2022-12-22T03:20:31;5.70;;;0.55;;
47353;SDS011;50657;48.830;2.282;2022-12-22T03:23:16;5.90;;;0.45;;
47353;SDS011;50657;48.830;2.282;2022-12-22T03:26:01;2.35;;;0.90;;
47353;SDS011;50657;48.830;2.282;2022-12-22T03:28:28;2.75;;;0.20;;
47353;SDS011;50657;48.830;2.282;2022-12-22T03:30:55;1.58;;;0.17;;
47353;SDS011;50657;48.830;2.282;2022-12-22T03:33:25;4.38;;;0.55;;
47353;SDS011;50657;48.830;2.282;2022-12-22T03:35:53;3.47;;;1.70;;
47353;SDS011;50657;48.830;2.282;2022-12-22T03:38:20;3.58;;;0.20;;
47353;SDS011;50657;48.830;2.282;2022-12-22T03:40:47;6.20;;;0.70;;
47353;SDS011;50657;48.830;2.282;2022-12-22T03:43:15;1.73;;;0.55;;
47353;SDS011;50657;48.830;2.282;2022-12-22T03:46:00;8.93;;;0.50;;
47353;SDS011;50657;48.830;2.282;2022-12-22T03:48:46;5.38;;;0.45;;
47353;SDS011;50657;48.830;2.282;2022-12-22T03:51:34;2.28;;;1.02;;
47353;SDS011;50657;48.830;2.282;2022-12-22T03:54:02;5.03;;;0.40;;
47353;SDS011;50657;48.830;2.282;2022-12-22T03:56:29;4.97;;;0.30;;
47353;SDS011;50657;48.830;2.282;2022-12-22T03:58:57;5.18;;;0.85;;
47353;SDS011;50657;48.830;2.282;2022-12-22T04:01:24;5.82;;;0.50;;
47353;SDS011;50657;48.830;2.282;2022-12-22T04:03:52;4.32;;;0.43;;
47353;SDS011;50657;48.830;2.282;2022-12-22T04:06:19;2.83;;;0.10;;
47353;SDS011;50657;48.830;2.282;2022-12-22T04:08:46;3.50;;;0.30;;
47353;SDS011;50657;48.830;2.282;2022-12-22T04:11:15;5.60;;;0.75;;
47353;SDS011;50657;48.830;2.282;2022-12-22T04:14:01;6.10;;;0.38;;
47353;SDS011;50657;48.830;2.282;2022-12-22T04:16:28;3.85;;;0.35;;
47353;SDS011;50657;48.830;2.282;2022-12-22T04:18:57;4.50;;;0.70;;
47353;SDS011;50657;48.830;2.282;2022-12-22T04:21:24;1.58;;;0.90;;
47353;SDS011;50657;48.830;2.282;2022-12-22T04:23:52;5.50;;;0.30;;
47353;SDS011;50657;48.830;2.282;2022-12-22T04:26:19;2.65;;;0.35;;
47353;SDS011;50657;48.830;2.282;2022-12-22T04:28:48;6.25;;;1.08;;
47353;SDS011;50657;48.830;2.282;2022-12-22T04:31:15;3.28;;;0.85;;
47353;SDS011;50657;48.830;2.282;2022-12-22T04:33:43;1.88;;;0.20;;
47353;SDS011;50657;48.830;2.282;2022-12-22T04:36:12;4.35;;;1.30;;
47353;SDS011;50657;48.830;2.282;2022-12-22T04:38:39;1.88;;;0.20;;
47353;SDS011;50657;48.830;2.282;2022-12-22T04:41:06;3.13;;;0.30;;
47353;SDS011;50657;48.830;2.282;2022-12-22T04:43:34;4.45;;;0.57;;
47353;SDS011;50657;48.830;2.282;2022-12-22T04:46:01;3.60;;;0.77;;
47353;SDS011;50657;48.830;2.282;2022-12-22T04:48:29;4.70;;;0.20;;
47353;SDS011;50657;48.830;2.282;2022-12-22T04:50:58;4.32;;;1.23;;
47353;SDS011;50657;48.830;2.282;2022-12-22T04:53:27;4.35;;;0.30;;
47353;SDS011;50657;48.830;2.282;2022-12-22T04:55:57;1.23;;;0.10;;
47353;SDS011;50657;48.830;2.282;2022-12-22T04:58:26;3.10;;;0.32;;
47353;SDS011;50657;48.830;2.282;2022-12-22T05:00:53;0.98;;;0.40;;
47353;SDS011;50657;48.830;2.282;2022-12-22T05:03:21;3.58;;;0.73;;
47353;SDS011;50657;48.830;2.282;2022-12-22T05:05:48;3.80;;;0.20;;
47353;SDS011;50657;48.830;2.282;2022-12-22T05:08:16;2.60;;;0.20;;
47353;SDS011;50657;48.830;2.282;2022-12-22T05:10:44;0.85;;;0.10;;
47353;SDS011;50657;48.830;2.282;2022-12-22T05:13:11;0.55;;;0.10;;
47353;SDS011;50657;48.830;2.282;2022-12-22T05:15:38;2.30;;;0.35;;
47353;SDS011;50657;48.830;2.282;2022-12-22T05:18:05;1.67;;;0.25;;
47353;SDS011;50657;48.830;2.282;2022-12-22T05:20:33;1.52;;;0.13;;
47353;SDS011;50657;48.830;2.282;2022-12-22T05:23:01;2.10;;;0.30;;
47353;SDS011;50657;48.830;2.282;2022-12-22T05:25:28;0.30;;;0.10;;
47353;SDS011;50657;48.830;2.282;2022-12-22T05:27:57;3.13;;;0.20;;
47353;SDS011;50657;48.830;2.282;2022-12-22T05:30:24;2.40;;;0.10;;
47353;SDS011;50657;48.830;2.282;2022-12-22T05:32:51;0.60;;;0.10;;
47353;SDS011;50657;48.830;2.282;2022-12-22T05:35:18;0.60;;;0.10;;
47353;SDS011;50657;48.830;2.282;2022-12-22T05:37:45;1.33;;;0.65;;
47353;SDS011;50657;48.830;2.282;2022-12-22T05:40:13;1.05;;;0.10;;
47353;SDS011;50657;48.830;2.282;2022-12-22T05:42:40;0.10;;;0.00;;
47353;SDS011;50657;48.830;2.282;2022-12-22T05:45:10;1.88;;;0.10;;
47353;SDS011;50657;48.830;2.282;2022-12-22T05:47:39;1.60;;;0.10;;
47353;SDS011;50657;48.830;2.282;2022-12-22T05:50:07;1.60;;;0.20;;
47353;SDS011;50657;48.830;2.282;2022-12-22T05:52:35;2.75;;;0.05;;
47353;SDS011;50657;48.830;2.282;2022-12-22T05:55:03;1.95;;;0.20;;
47353;SDS011;50657;48.830;2.282;2022-12-22T05:57:31;2.97;;;0.32;;
47353;SDS011;50657;48.830;2.282;2022-12-22T05:59:58;1.38;;;0.00;;
47353;SDS011;50657;48.830;2.282;2022-12-22T06:02:26;1.60;;;0.75;;
47353;SDS011;50657;48.830;2.282;2022-12-22T06:04:53;3.20;;;0.20;;
47353;SDS011;50657;48.830;2.282;2022-12-22T06:07:20;2.08;;;0.55;;
47353;SDS011;50657;48.830;2.282;2022-12-22T06:09:47;1.63;;;0.00;;
47353;SDS011;50657;48.830;2.282;2022-12-22T06:12:14;0.57;;;0.00;;
47353;SDS011;50657;48.830;2.282;2022-12-22T06:14:41;0.20;;;0.00;;
47353;SDS011;50657;48.830;2.282;2022-12-22T06:17:08;0.63;;;0.63;;
47353;SDS011;50657;48.830;2.282;2022-12-22T06:19:37;3.58;;;0.00;;
47353;SDS011;50657;48.830;2.282;2022-12-22T06:22:04;0.20;;;0.05;;
47353;SDS011;50657;48.830;2.282;2022-12-22T06:24:31;0.80;;;0.10;;
47353;SDS011;50657;48.830;2.282;2022-12-22T06:26:58;0.10;;;0.00;;
47353;SDS011;50657;48.830;2.282;2022-12-22T06:29:25;0.63;;;0.10;;
47353;SDS011;50657;48.830;2.282;2022-12-22T06:31:53;0.80;;;0.10;;
47353;SDS011;50657;48.830;2.282;2022-12-22T06:34:20;0.68;;;0.00;;
47353;SDS011;50657;48.830;2.282;2022-12-22T06:36:48;0.85;;;0.10;;
47353;SDS011;50657;48.830;2.282;2022-12-22T06:39:15;1.80;;;0.08;;
47353;SDS011;50657;48.830;2.282;2022-12-22T06:41:43;0.70;;;0.10;;
47353;SDS011;50657;48.830;2.282;2022-12-22T06:44:27;0.10;;;0.00;;
47353;SDS011;50657;48.830;2.282;2022-12-22T06:46:54;1.25;;;0.20;;
47353;SDS011;50657;48.830;2.282;2022-12-22T06:49:21;0.88;;;0.05;;
47353;SDS011;50657;48.830;2.282;2022-12-22T06:51:50;0.30;;;0.30;;
47353;SDS011;50657;48.830;2.282;2022-12-22T06:54:17;0.95;;;0.55;;
47353;SDS011;50657;48.830;2.282;2022-12-22T06:56:44;7.88;;;0.20;;
47353;SDS011;50657;48.830;2.282;2022-12-22T06:59:12;1.48;;;0.20;;
47353;SDS011;50657;48.830;2.282;2022-12-22T07:01:39;1.27;;;0.75;;
47353;SDS011;50657;48.830;2.282;2022-12-22T07:04:06;1.42;;;0.10;;
47353;SDS011;50657;48.830;2.282;2022-12-22T07:06:34;2.35;;;0.20;;
47353;SDS011;50657;48.830;2.282;2022-12-22T07:09:02;2.42;;;0.10;;
47353;SDS011;50657;48.830;2.282;2022-12-22T07:11:29;2.00;;;0.10;;
47353;SDS011;50657;48.830;2.282;2022-12-22T07:13:56;3.80;;;0.60;;
47353;SDS011;50657;48.830;2.282;2022-12-22T07:16:23;3.40;;;0.20;;
47353;SDS011;50657;48.830;2.282;2022-12-22T07:18:50;3.85;;;0.32;;
47353;SDS011;50657;48.830;2.282;2022-12-22T07:21:17;2.72;;;0.22;;
47353;SDS011;50657;48.830;2.282;2022-12-22T07:23:44;1.85;;;0.13;;
47353;SDS011;50657;48.830;2.282;2022-12-22T07:26:13;1.92;;;0.43;;
47353;SDS011;50657;48.830;2.282;2022-12-22T07:28:41;3.55;;;0.40;;
47353;SDS011;50657;48.830;2.282;2022-12-22T07:31:08;3.15;;;0.35;;
47353;SDS011;50657;48.830;2.282;2022-12-22T07:33:36;2.85;;;0.20;;
47353;SDS011;50657;48.830;2.282;2022-12-22T07:36:04;3.50;;;0.50;;
47353;SDS011;50657;48.830;2.282;2022-12-22T07:38:33;9.80;;;0.70;;
47353;SDS011;50657;48.830;2.282;2022-12-22T07:41:01;2.63;;;0.40;;
47353;SDS011;50657;48.830;2.282;2022-12-22T07:43:30;5.30;;;0.35;;
47353;SDS011;50657;48.830;2.282;2022-12-22T07:45:56;4.38;;;0.20;;
47353;SDS011;50657;48.830;2.282;2022-12-22T07:48:23;11.68;;;1.38;;
47353;SDS011;50657;48.830;2.282;2022-12-22T07:51:07;9.10;;;0.40;;
47353;SDS011;50657;48.830;2.282;2022-12-22T07:53:34;5.95;;;0.43;;
47353;SDS011;50657;48.830;2.282;2022-12-22T07:56:02;4.47;;;0.90;;
47353;SDS011;50657;48.830;2.282;2022-12-22T07:58:31;9.32;;;1.58;;
47353;SDS011;50657;48.830;2.282;2022-12-22T08:00:59;9.95;;;1.45;;
47353;SDS011;50657;48.830;2.282;2022-12-22T08:03:27;7.90;;;0.68;;
47353;SDS011;50657;48.830;2.282;2022-12-22T08:05:54;6.30;;;0.55;;
47353;SDS011;50657;48.830;2.282;2022-12-22T08:08:21;9.05;;;1.30;;
47353;SDS011;50657;48.830;2.282;2022-12-22T08:10:48;12.77;;;1.17;;
47353;SDS011;50657;48.830;2.282;2022-12-22T08:13:15;12.25;;;1.10;;
47353;SDS011;50657;48.830;2.282;2022-12-22T08:15:43;11.77;;;1.70;;
47353;SDS011;50657;48.830;2.282;2022-12-22T08:18:10;12.32;;;1.60;;
47353;SDS011;50657;48.830;2.282;2022-12-22T08:20:37;11.85;;;1.58;;
47353;SDS011;50657;48.830;2.282;2022-12-22T08:23:04;8.02;;;1.08;;
47353;SDS011;50657;48.830;2.282;2022-12-22T08:25:31;8.10;;;1.50;;
47353;SDS011;50657;48.830;2.282;2022-12-22T08:27:59;8.75;;;1.55;;
47353;SDS011;50657;48.830;2.282;2022-12-22T08:30:27;8.80;;;1.85;;
47353;SDS011;50657;48.830;2.282;2022-12-22T08:32:56;9.70;;;1.10;;
47353;SDS011;50657;48.830;2.282;2022-12-22T08:35:23;16.38;;;2.17;;
47353;SDS011;50657;48.830;2.282;2022-12-22T08:37:50;10.20;;;0.98;;
47353;SDS011;50657;48.830;2.282;2022-12-22T08:40:21;28.70;;;2.53;;
47353;SDS011;50657;48.830;2.282;2022-12-22T08:42:52;12.55;;;1.65;;
47353;SDS011;50657;48.830;2.282;2022-12-22T08:45:24;11.55;;;1.02;;
47353;SDS011;50657;48.830;2.282;2022-12-22T08:47:51;17.27;;;2.38;;
47353;SDS011;50657;48.830;2.282;2022-12-22T08:50:19;15.00;;;2.17;;
47353;SDS011;50657;48.830;2.282;2022-12-22T08:52:46;13.88;;;1.27;;
47353;SDS011;50657;48.830;2.282;2022-12-22T08:55:14;11.40;;;2.60;;
47353;SDS011;50657;48.830;2.282;2022-12-22T08:57:41;17.52;;;2.72;;
47353;SDS011;50657;48.830;2.282;2022-12-22T09:00:08;21.17;;;3.65;;
47353;SDS011;50657;48.830;2.282;2022-12-22T09:02:37;23.48;;;4.30;;
47353;SDS011;50657;48.830;2.282;2022-12-22T09:05:04;16.63;;;3.55;;
47353;SDS011;50657;48.830;2.282;2022-12-22T09:07:33;14.23;;;2.35;;
47353;SDS011;50657;48.830;2.282;2022-12-22T09:10:00;14.15;;;2.20;;
47353;SDS011;50657;48.830;2.282;2022-12-22T09:12:27;9.48;;;1.92;;
47353;SDS011;50657;48.830;2.282;2022-12-22T09:14:54;11.88;;;3.00;;
47353;SDS011;50657;48.830;2.282;2022-12-22T09:17:21;8.95;;;1.70;;
47353;SDS011;50657;48.830;2.282;2022-12-22T09:19:48;8.52;;;1.35;;
47353;SDS011;50657;48.830;2.282;2022-12-22T09:22:16;12.68;;;2.30;;
47353;SDS011;50657;48.830;2.282;2022-12-22T09:24:44;15.80;;;2.33;;
47353;SDS011;50657;48.830;2.282;2022-12-22T09:27:11;14.55;;;2.25;;
47353;SDS011;50657;48.830;2.282;2022-12-22T09:29:39;16.27;;;2.85;;
47353;SDS011;50657;48.830;2.282;2022-12-22T09:32:06;18.10;;;3.78;;
47353;SDS011;50657;48.830;2.282;2022-12-22T09:34:33;16.67;;;2.60;;
47353;SDS011;50657;48.830;2.282;2022-12-22T09:37:00;16.08;;;5.30;;
47353;SDS011;50657;48.830;2.282;2022-12-22T09:39:27;18.45;;;2.88;;
47353;SDS011;50657;48.830;2.282;2022-12-22T09:41:56;16.63;;;2.53;;
47353;SDS011;50657;48.830;2.282;2022-12-22T09:44:24;17.27;;;2.22;;
47353;SDS011;50657;48.830;2.282;2022-12-22T09:46:54;41.97;;;4.80;;
47353;SDS011;50657;48.830;2.282;2022-12-22T09:49:23;20.90;;;4.07;;
47353;SDS011;50657;48.830;2.282;2022-12-22T09:51:52;28.02;;;3.92;;
47353;SDS011;50657;48.830;2.282;2022-12-22T09:54:22;26.13;;;4.82;;
47353;SDS011;50657;48.830;2.282;2022-12-22T09:56:50;27.30;;;6.13;;
47353;SDS011;50657;48.830;2.282;2022-12-22T09:59:19;17.70;;;2.78;;
47353;SDS011;50657;48.830;2.282;2022-12-22T10:01:55;19.65;;;3.58;;
47353;SDS011;50657;48.830;2.282;2022-12-22T10:04:34;13.50;;;1.98;;
47353;SDS011;50657;48.830;2.282;2022-12-22T10:07:12;19.63;;;4.47;;
47353;SDS011;50657;48.830;2.282;2022-12-22T10:09:47;16.05;;;2.03;;
47353;SDS011;50657;48.830;2.282;2022-12-22T10:12:15;9.80;;;2.13;;
47353;SDS011;50657;48.830;2.282;2022-12-22T10:14:45;21.17;;;3.72;;
47353;SDS011;50657;48.830;2.282;2022-12-22T10:17:17;14.38;;;2.20;;
47353;SDS011;50657;48.830;2.282;2022-12-22T10:19:47;15.73;;;4.88;;
47353;SDS011;50657;48.830;2.282;2022-12-22T10:22:18;19.60;;;2.63;;
47353;SDS011;50657;48.830;2.282;2022-12-22T10:24:52;14.55;;;4.32;;
47353;SDS011;50657;48.830;2.282;2022-12-22T10:27:20;15.60;;;2.72;;
47353;SDS011;50657;48.830;2.282;2022-12-22T10:29:50;16.33;;;2.00;;
47353;SDS011;50657;48.830;2.282;2022-12-22T10:32:18;20.25;;;3.13;;
47353;SDS011;50657;48.830;2.282;2022-12-22T10:37:36;17.98;;;2.95;;
47353;SDS011;50657;48.830;2.282;2022-12-22T10:40:12;20.13;;;4.05;;
47353;SDS011;50657;48.830;2.282;2022-12-22T10:45:17;10.93;;;1.73;;
47353;SDS011;50657;48.830;2.282;2022-12-22T10:47:47;15.80;;;2.35;;
47353;SDS011;50657;48.830;2.282;2022-12-22T10:50:16;22.13;;;6.55;;
47353;SDS011;50657;48.830;2.282;2022-12-22T10:52:48;23.85;;;3.22;;
47353;SDS011;50657;48.830;2.282;2022-12-22T10:55:18;17.88;;;3.17;;
47353;SDS011;50657;48.830;2.282;2022-12-22T10:57:49;23.65;;;3.67;;
47353;SDS011;50657;48.830;2.282;2022-12-22T11:00:22;23.60;;;3.50;;
47353;SDS011;50657;48.830;2.282;2022-12-22T11:02:51;15.63;;;4.18;;
47353;SDS011;50657;48.830;2.282;2022-12-22T11:05:19;24.67;;;4.03;;
47353;SDS011;50657;48.830;2.282;2022-12-22T11:07:46;19.25;;;4.70;;
47353;SDS011;50657;48.830;2.282;2022-12-22T11:10:15;21.63;;;3.53;;
47353;SDS011;50657;48.830;2.282;2022-12-22T11:12:51;30.55;;;4.97;;
47353;SDS011;50657;48.830;2.282;2022-12-22T11:15:29;41.75;;;7.28;;
47353;SDS011;50657;48.830;2.282;2022-12-22T11:18:04;28.95;;;5.00;;
47353;SDS011;50657;48.830;2.282;2022-12-22T11:20:45;40.40;;;4.35;;
47353;SDS011;50657;48.830;2.282;2022-12-22T11:23:18;29.17;;;5.18;;
47353;SDS011;50657;48.830;2.282;2022-12-22T11:25:52;35.13;;;6.20;;
47353;SDS011;50657;48.830;2.282;2022-12-22T11:28:30;32.22;;;4.63;;
47353;SDS011;50657;48.830;2.282;2022-12-22T11:31:14;28.98;;;5.03;;
47353;SDS011;50657;48.830;2.282;2022-12-22T11:33:52;34.88;;;4.25;;
47353;SDS011;50657;48.830;2.282;2022-12-22T11:36:30;22.80;;;3.95;;
47353;SDS011;50657;48.830;2.282;2022-12-22T11:39:06;27.83;;;4.80;;
47353;SDS011;50657;48.830;2.282;2022-12-22T11:41:41;28.13;;;3.75;;
47353;SDS011;50657;48.830;2.282;2022-12-22T11:44:27;24.83;;;5.25;;
47353;SDS011;50657;48.830;2.282;2022-12-22T11:47:14;27.13;;;5.70;;
47353;SDS011;50657;48.830;2.282;2022-12-22T11:49:55;25.73;;;3.60;;
47353;SDS011;50657;48.830;2.282;2022-12-22T11:52:38;24.70;;;2.58;;
47353;SDS011;50657;48.830;2.282;2022-12-22T11:55:16;21.67;;;3.25;;
47353;SDS011;50657;48.830;2.282;2022-12-22T11:57:56;19.30;;;3.88;;
47353;SDS011;50657;48.830;2.282;2022-12-22T12:00:31;17.55;;;2.92;;
47353;SDS011;50657;48.830;2.282;2022-12-22T12:03:22;19.88;;;3.33;;
47353;SDS011;50657;48.830;2.282;2022-12-22T12:06:16;15.70;;;3.15;;
47353;SDS011;50657;48.830;2.282;2022-12-22T12:08:55;24.90;;;3.78;;
47353;SDS011;50657;48.830;2.282;2022-12-22T12:11:32;15.10;;;5.35;;
47353;SDS011;50657;48.830;2.282;2022-12-22T12:14:06;12.60;;;2.90;;
47353;SDS011;50657;48.830;2.282;2022-12-22T12:16:43;24.50;;;4.38;;
47353;SDS011;50657;48.830;2.282;2022-12-22T12:19:30;17.65;;;3.25;;
47353;SDS011;50657;48.830;2.282;2022-12-22T12:22:19;19.70;;;4.57;;
47353;SDS011;50657;48.830;2.282;2022-12-22T12:24:59;16.02;;;4.70;;
47353;SDS011;50657;48.830;2.282;2022-12-22T12:27:32;20.10;;;3.45;;
47353;SDS011;50657;48.830;2.282;2022-12-22T12:30:11;16.05;;;2.90;;
47353;SDS011;50657;48.830;2.282;2022-12-22T12:32:41;18.52;;;2.65;;
47353;SDS011;50657;48.830;2.282;2022-12-22T12:35:21;14.93;;;3.95;;
47353;SDS011;50657;48.830;2.282;2022-12-22T12:38:09;17.55;;;3.20;;
47353;SDS011;50657;48.830;2.282;2022-12-22T12:40:45;12.25;;;2.17;;
47353;SDS011;50657;48.830;2.282;2022-12-22T12:43:17;14.48;;;3.30;;
47353;SDS011;50657;48.830;2.282;2022-12-22T12:45:46;19.00;;;4.45;;
47353;SDS011;50657;48.830;2.282;2022-12-22T12:54:30;17.90;;;3.05;;
47353;SDS011;50657;48.830;2.282;2022-12-22T12:59:45;18.10;;;2.20;;
47353;SDS011;50657;48.830;2.282;2022-12-22T13:02:33;11.40;;;2.22;;
47353;SDS011;50657;48.830;2.282;2022-12-22T13:08:11;14.15;;;3.63;;
47353;SDS011;50657;48.830;2.282;2022-12-22T13:10:48;19.88;;;2.42;;
47353;SDS011;50657;48.830;2.282;2022-12-22T13:13:48;14.57;;;2.85;;
47353;SDS011;50657;48.830;2.282;2022-12-22T13:16:25;22.33;;;2.47;;
47353;SDS011;50657;48.830;2.282;2022-12-22T13:18:58;12.85;;;2.63;;
47353;SDS011;50657;48.830;2.282;2022-12-22T13:21:35;11.60;;;3.35;;
47353;SDS011;50657;48.830;2.282;2022-12-22T13:24:10;26.77;;;3.47;;
47353;SDS011;50657;48.830;2.282;2022-12-22T13:26:41;18.58;;;2.47;;
47353;SDS011;50657;48.830;2.282;2022-12-22T13:29:13;15.43;;;3.70;;
47353;SDS011;50657;48.830;2.282;2022-12-22T13:31:49;16.13;;;1.65;;
47353;SDS011;50657;48.830;2.282;2022-12-22T13:34:28;11.25;;;2.08;;
47353;SDS011;50657;48.830;2.282;2022-12-22T13:37:09;15.40;;;2.85;;
47353;SDS011;50657;48.830;2.282;2022-12-22T13:39:42;13.60;;;2.85;;
47353;SDS011;50657;48.830;2.282;2022-12-22T13:42:33;18.75;;;3.92;;
47353;SDS011;50657;48.830;2.282;2022-12-22T13:45:01;17.55;;;2.03;;
47353;SDS011;50657;48.830;2.282;2022-12-22T13:47:30;15.43;;;3.65;;
47353;SDS011;50657;48.830;2.282;2022-12-22T13:49:58;9.63;;;1.33;;
47353;SDS011;50657;48.830;2.282;2022-12-22T13:52:25;17.73;;;2.65;;
47353;SDS011;50657;48.830;2.282;2022-12-22T13:54:53;18.05;;;3.83;;
47353;SDS011;50657;48.830;2.282;2022-12-22T13:57:20;14.07;;;3.53;;
47353;SDS011;50657;48.830;2.282;2022-12-22T13:59:49;11.63;;;2.00;;
47353;SDS011;50657;48.830;2.282;2022-12-22T14:02:17;14.68;;;2.35;;
47353;SDS011;50657;48.830;2.282;2022-12-22T14:05:01;9.60;;;0.80;;
47353;SDS011;50657;48.830;2.282;2022-12-22T14:07:31;14.90;;;2.22;;
47353;SDS011;50657;48.830;2.282;2022-12-22T14:10:00;14.48;;;2.05;;
47353;SDS011;50657;48.830;2.282;2022-12-22T14:12:28;9.70;;;2.53;;
47353;SDS011;50657;48.830;2.282;2022-12-22T14:14:57;12.63;;;2.03;;
47353;SDS011;50657;48.830;2.282;2022-12-22T14:17:29;14.13;;;1.88;;
47353;SDS011;50657;48.830;2.282;2022-12-22T14:19:58;11.70;;;3.83;;
47353;SDS011;50657;48.830;2.282;2022-12-22T14:22:29;20.25;;;1.42;;
47353;SDS011;50657;48.830;2.282;2022-12-22T14:25:02;9.70;;;1.33;;
47353;SDS011;50657;48.830;2.282;2022-12-22T14:27:34;18.00;;;2.10;;
47353;SDS011;50657;48.830;2.282;2022-12-22T14:30:05;19.90;;;3.33;;
47353;SDS011;50657;48.830;2.282;2022-12-22T14:32:42;11.00;;;1.45;;
47353;SDS011;50657;48.830;2.282;2022-12-22T14:35:21;8.88;;;1.40;;
47353;SDS011;50657;48.830;2.282;2022-12-22T14:37:52;8.85;;;1.85;;
47353;SDS011;50657;48.830;2.282;2022-12-22T14:40:29;15.18;;;1.60;;
47353;SDS011;50657;48.830;2.282;2022-12-22T14:42:58;17.40;;;2.08;;
47353;SDS011;50657;48.830;2.282;2022-12-22T14:45:28;11.90;;;2.15;;
47353;SDS011;50657;48.830;2.282;2022-12-22T14:47:55;14.05;;;2.25;;
47353;SDS011;50657;48.830;2.282;2022-12-22T14:50:23;12.48;;;1.40;;
47353;SDS011;50657;48.830;2.282;2022-12-22T14:52:51;14.02;;;1.35;;
47353;SDS011;50657;48.830;2.282;2022-12-22T14:55:21;11.27;;;2.17;;
47353;SDS011;50657;48.830;2.282;2022-12-22T14:57:54;8.52;;;1.58;;
47353;SDS011;50657;48.830;2.282;2022-12-22T15:00:28;12.23;;;1.05;;
47353;SDS011;50657;48.830;2.282;2022-12-22T15:02:59;12.13;;;1.25;;
47353;SDS011;50657;48.830;2.282;2022-12-22T15:05:28;16.40;;;2.13;;
47353;SDS011;50657;48.830;2.282;2022-12-22T15:08:02;13.57;;;0.90;;
47353;SDS011;50657;48.830;2.282;2022-12-22T15:10:32;16.17;;;2.15;;
47353;SDS011;50657;48.830;2.282;2022-12-22T15:13:06;8.27;;;1.70;;
47353;SDS011;50657;48.830;2.282;2022-12-22T15:15:40;11.27;;;0.80;;
47353;SDS011;50657;48.830;2.282;2022-12-22T15:18:10;16.13;;;2.58;;
47353;SDS011;50657;48.830;2.282;2022-12-22T15:20:39;7.85;;;2.25;;
47353;SDS011;50657;48.830;2.282;2022-12-22T15:23:09;16.52;;;1.90;;
47353;SDS011;50657;48.830;2.282;2022-12-22T15:25:37;14.32;;;1.05;;
47353;SDS011;50657;48.830;2.282;2022-12-22T15:28:06;7.75;;;1.83;;
47353;SDS011;50657;48.830;2.282;2022-12-22T15:30:33;11.50;;;1.52;;
47353;SDS011;50657;48.830;2.282;2022-12-22T15:33:01;10.32;;;0.82;;
47353;SDS011;50657;48.830;2.282;2022-12-22T15:35:29;6.47;;;1.13;;
47353;SDS011;50657;48.830;2.282;2022-12-22T15:37:57;8.13;;;0.95;;
47353;SDS011;50657;48.830;2.282;2022-12-22T15:40:25;10.18;;;2.28;;
47353;SDS011;50657;48.830;2.282;2022-12-22T15:42:53;13.40;;;1.65;;
47353;SDS011;50657;48.830;2.282;2022-12-22T15:45:22;11.18;;;1.45;;
47353;SDS011;50657;48.830;2.282;2022-12-22T15:47:50;7.25;;;0.82;;
47353;SDS011;50657;48.830;2.282;2022-12-22T15:50:19;10.25;;;1.05;;